Time;durP1;ratioP1;P1;durP2;ratioP2;P2;SDS_P1;SDS_P2;PMS_P1;PMS_P2;Temp;Humidity;BMP_temperature;BMP_pressure;BME280_temperature;BME280_humidity;BME280_pressure;Samples;Min_cycle;Max_cycle;Signal;HPM_P1;HPM_P2
2022/10/31 00:00:41;;;;;;;5.82;3.05;;;20.30;54.10;;;;;;5105904;28;20016;-68
2022/10/31 00:03:08;;;;;;;7.78;3.45;;;20.30;54.00;;;;;;5106158;28;20028;-69
2022/10/31 00:05:34;;;;;;;15.10;4.20;;;20.20;54.00;;;;;;5107020;28;20023;-69
2022/10/31 00:08:01;;;;;;;9.48;4.80;;;20.20;54.00;;;;;;5109457;28;20051;-69
2022/10/31 00:10:27;;;;;;;16.45;5.32;;;20.20;54.20;;;;;;5102962;28;20028;-69
2022/10/31 00:12:54;;;;;;;8.85;4.45;;;20.20;55.00;;;;;;5104959;28;20007;-68
2022/10/31 00:15:20;;;;;;;7.43;3.35;;;20.20;54.50;;;;;;5107609;28;20077;-69
2022/10/31 00:17:47;;;;;;;8.10;3.17;;;20.30;54.60;;;;;;5104801;28;20489;-69
2022/10/31 00:20:13;;;;;;;4.20;2.17;;;20.20;54.50;;;;;;5108261;28;20032;-69
2022/10/31 00:22:40;;;;;;;14.82;2.60;;;20.20;54.50;;;;;;5105978;28;20157;-68
2022/10/31 00:25:07;;;;;;;11.55;2.15;;;20.20;54.70;;;;;;5107981;28;20035;-69
2022/10/31 00:27:33;;;;;;;5.45;1.58;;;20.20;54.70;;;;;;5108891;28;20080;-70
2022/10/31 00:30:00;;;;;;;8.05;2.03;;;20.20;54.80;;;;;;5105616;28;20038;-70
2022/10/31 00:32:30;;;;;;;5.68;1.88;;;20.20;54.80;;;;;;5106237;28;20044;-70
2022/10/31 00:34:56;;;;;;;5.57;1.60;;;20.20;54.80;;;;;;5099919;28;20028;-69
2022/10/31 00:37:23;;;;;;;4.47;1.58;;;20.10;54.90;;;;;;5106932;28;20024;-70
2022/10/31 00:39:49;;;;;;;4.15;2.08;;;20.10;55.00;;;;;;5103928;28;20489;-69
2022/10/31 00:42:16;;;;;;;9.27;1.60;;;20.10;55.50;;;;;;5103928;28;20089;-69
2022/10/31 00:44:43;;;;;;;9.68;1.52;;;20.10;55.70;;;;;;5084903;28;20372;-69
2022/10/31 00:47:09;;;;;;;6.85;1.58;;;20.10;55.80;;;;;;5108469;28;20074;-69
2022/10/31 00:49:36;;;;;;;4.13;1.30;;;20.10;55.90;;;;;;5107347;28;20448;-69
2022/10/31 00:52:02;;;;;;;6.35;1.40;;;20.10;55.90;;;;;;5103097;28;20042;-69
2022/10/31 00:54:30;;;;;;;6.00;1.65;;;20.10;55.90;;;;;;5105983;28;20069;-69
2022/10/31 00:56:57;;;;;;;4.47;1.25;;;20.10;55.80;;;;;;5104235;28;20478;-68
2022/10/31 00:59:24;;;;;;;3.53;1.42;;;20.00;55.50;;;;;;5105631;28;20012;-68
2022/10/31 01:01:50;;;;;;;6.75;1.75;;;20.00;55.50;;;;;;5103337;28;20474;-68
2022/10/31 01:04:17;;;;;;;3.88;1.60;;;20.00;55.50;;;;;;5101598;28;20028;-68
2022/10/31 01:06:43;;;;;;;3.03;1.63;;;20.00;55.60;;;;;;5108367;28;20030;-69
2022/10/31 01:09:10;;;;;;;5.00;1.58;;;20.00;55.90;;;;;;5106101;28;20039;-68
2022/10/31 01:11:37;;;;;;;8.32;2.47;;;20.00;56.10;;;;;;5104270;28;20482;-69
2022/10/31 01:14:03;;;;;;;12.45;2.00;;;20.00;57.10;;;;;;5107842;28;20066;-69
2022/10/31 01:16:30;;;;;;;12.98;3.15;;;20.00;57.20;;;;;;5101903;28;20016;-68
2022/10/31 01:18:56;;;;;;;16.48;2.63;;;20.00;57.80;;;;;;5106266;28;20076;-70
2022/10/31 01:21:25;;;;;;;16.75;3.10;;;20.00;57.80;;;;;;5102547;28;20020;-69
2022/10/31 01:23:54;;;;;;;2.90;1.50;;;20.00;57.80;;;;;;5107404;28;20011;-70
2022/10/31 01:26:30;;;;;;;8.13;1.55;;;19.90;57.20;;;;;;5107072;28;20031;-69
2022/10/31 01:29:02;;;;;;;8.20;2.10;;;19.90;56.90;;;;;;5105135;28;20047;-69
2022/10/31 01:31:32;;;;;;;9.85;2.53;;;19.90;56.60;;;;;;5104646;28;20022;-69
2022/10/31 01:33:59;;;;;;;9.77;1.88;;;19.90;57.00;;;;;;5104589;28;20015;-68
2022/10/31 01:36:33;;;;;;;6.13;1.50;;;19.90;57.60;;;;;;5098960;28;20088;-68
2022/10/31 01:39:04;;;;;;;6.53;1.90;;;19.90;57.30;;;;;;5105312;28;20019;-69
2022/10/31 01:41:33;;;;;;;15.13;3.05;;;19.90;56.80;;;;;;5103414;28;20027;-68
2022/10/31 01:44:14;;;;;;;8.05;2.45;;;19.90;57.30;;;;;;5107327;28;20023;-69
2022/10/31 01:46:48;;;;;;;10.85;1.70;;;19.80;56.90;;;;;;5102546;28;20028;-68
2022/10/31 01:49:39;;;;;;;2.78;1.30;;;19.90;56.50;;;;;;5104680;28;20019;-69
2022/10/31 01:52:19;;;;;;;5.90;1.35;;;19.80;56.10;;;;;;5088246;28;20104;-69
2022/10/31 01:54:54;;;;;;;4.75;1.45;;;19.80;55.90;;;;;;5104371;28;20470;-69
2022/10/31 01:57:22;;;;;;;7.20;2.70;;;19.80;55.80;;;;;;5101921;28;20039;-69
2022/10/31 01:59:52;;;;;;;7.63;2.42;;;19.80;55.70;;;;;;5108772;28;20271;-69
2022/10/31 02:02:19;;;;;;;3.10;1.50;;;19.70;55.60;;;;;;5099557;28;20020;-68
2022/10/31 02:04:47;;;;;;;3.90;1.67;;;19.70;55.60;;;;;;5104409;28;20024;-68
2022/10/31 02:07:27;;;;;;;5.85;1.63;;;19.70;55.60;;;;;;5103828;28;20035;-67
2022/10/31 02:09:55;;;;;;;5.47;1.67;;;19.70;55.60;;;;;;5104420;28;20050;-68
2022/10/31 02:12:22;;;;;;;4.45;1.33;;;19.70;55.60;;;;;;5108199;28;20020;-68
2022/10/31 02:14:48;;;;;;;5.32;1.40;;;19.60;55.60;;;;;;5103159;28;20023;-68
2022/10/31 02:17:15;;;;;;;7.95;2.67;;;19.60;55.60;;;;;;5105171;28;20045;-68
2022/10/31 02:19:48;;;;;;;5.95;1.73;;;19.60;55.60;;;;;;5108744;28;20015;-68
2022/10/31 02:22:43;;;;;;;2.13;0.75;;;19.60;55.60;;;;;;5105839;28;20029;-68
2022/10/31 02:25:58;;;;;;;16.48;2.33;;;19.60;55.60;;;;;;5109538;28;20024;-68
2022/10/31 02:28:38;;;;;;;7.47;1.58;;;19.60;55.90;;;;;;5109506;28;20835;-68
2022/10/31 02:31:17;;;;;;;6.40;1.73;;;19.60;55.90;;;;;;5111164;28;20027;-67
2022/10/31 02:33:52;;;;;;;3.55;1.25;;;19.60;56.00;;;;;;5111230;28;20024;-68
2022/10/31 02:36:35;;;;;;;11.35;1.67;;;19.60;56.20;;;;;;5104702;28;20357;-67
2022/10/31 02:39:18;;;;;;;5.25;1.30;;;19.50;56.20;;;;;;5109297;28;20031;-68
2022/10/31 02:41:52;;;;;;;5.60;1.88;;;19.60;56.40;;;;;;5105479;28;20539;-68
2022/10/31 02:44:32;;;;;;;10.88;1.63;;;19.50;56.30;;;;;;5105449;28;20025;-68
2022/10/31 02:47:14;;;;;;;6.43;1.77;;;19.50;56.40;;;;;;5110373;28;20042;-68
2022/10/31 02:49:52;;;;;;;6.05;1.90;;;19.50;56.70;;;;;;5104702;28;20081;-68
2022/10/31 02:52:23;;;;;;;8.38;1.77;;;19.50;56.70;;;;;;5110631;28;20034;-68
2022/10/31 02:54:50;;;;;;;8.07;1.83;;;19.50;56.60;;;;;;5107039;28;20031;-68
2022/10/31 02:57:20;;;;;;;4.40;1.27;;;19.50;56.40;;;;;;5109815;28;20051;-68
2022/10/31 02:59:54;;;;;;;4.32;1.60;;;19.40;56.30;;;;;;5106725;28;20531;-68
2022/10/31 03:02:26;;;;;;;5.70;2.55;;;19.40;56.20;;;;;;5106349;28;20024;-69
2022/10/31 03:05:23;;;;;;;3.30;1.98;;;19.40;56.20;;;;;;5109422;28;20475;-68
2022/10/31 03:08:20;;;;;;;4.25;1.23;;;19.40;56.20;;;;;;5108434;28;20183;-69
2022/10/31 03:10:49;;;;;;;25.88;9.45;;;19.40;56.10;;;;;;5103685;28;20029;-70
2022/10/31 03:13:43;;;;;;;16.85;8.32;;;19.40;56.20;;;;;;5107610;28;20032;-68
2022/10/31 03:16:17;;;;;;;6.88;4.32;;;19.40;56.50;;;;;;5107448;28;20497;-69
2022/10/31 03:18:52;;;;;;;13.05;3.53;;;19.40;56.30;;;;;;5101762;28;20149;-69
2022/10/31 03:21:30;;;;;;;6.03;2.13;;;19.30;56.10;;;;;;5111051;28;20016;-69
2022/10/31 03:23:59;;;;;;;6.90;2.70;;;19.30;56.10;;;;;;5107634;28;20067;-69
2022/10/31 03:26:25;;;;;;;4.10;2.42;;;19.30;56.00;;;;;;5106846;28;20149;-69
2022/10/31 03:29:02;;;;;;;6.47;1.65;;;19.30;55.90;;;;;;5103724;28;20088;-69
2022/10/31 03:32:07;;;;;;;7.10;2.10;;;19.30;55.80;;;;;;5104596;28;20028;-68
2022/10/31 03:34:40;;;;;;;6.22;1.80;;;19.30;55.70;;;;;;5083089;28;20035;-68
2022/10/31 03:37:10;;;;;;;10.65;2.33;;;19.30;55.70;;;;;;5108170;28;20111;-67
2022/10/31 03:39:39;;;;;;;8.45;1.63;;;19.30;55.60;;;;;;5106606;28;20339;-67
2022/10/31 03:42:30;;;;;;;7.80;1.80;;;19.20;55.70;;;;;;5105602;28;20027;-68
2022/10/31 03:45:08;;;;;;;9.48;2.33;;;19.20;55.60;;;;;;5100894;28;20024;-68
2022/10/31 03:47:36;;;;;;;4.82;2.45;;;19.20;55.60;;;;;;5104791;28;20536;-67
2022/10/31 03:50:04;;;;;;;4.57;1.75;;;19.20;55.60;;;;;;5103914;28;20070;-67
2022/10/31 03:52:37;;;;;;;6.70;1.75;;;19.20;55.60;;;;;;5103071;28;20034;-68
2022/10/31 03:55:15;;;;;;;5.47;1.80;;;19.20;55.50;;;;;;5089754;28;20381;-68
2022/10/31 03:58:07;;;;;;;8.60;1.90;;;19.20;55.40;;;;;;5106709;28;20536;-67
2022/10/31 04:00:38;;;;;;;23.10;5.35;;;19.20;55.30;;;;;;5102269;28;20072;-66
2022/10/31 04:03:19;;;;;;;19.30;5.50;;;19.20;55.70;;;;;;5107334;28;20463;-68
2022/10/31 04:05:48;;;;;;;12.98;3.92;;;19.20;55.70;;;;;;5108130;28;20034;-67
2022/10/31 04:08:20;;;;;;;7.78;2.45;;;19.20;55.50;;;;;;5105308;28;20027;-67
2022/10/31 04:10:49;;;;;;;12.20;2.10;;;19.20;56.10;;;;;;5102294;28;20028;-66
2022/10/31 04:13:22;;;;;;;12.68;2.72;;;19.20;56.40;;;;;;5104564;28;20020;-70
2022/10/31 04:15:52;;;;;;;10.70;5.10;;;19.20;56.20;;;;;;5103902;28;20020;-70
2022/10/31 04:18:19;;;;;;;17.23;6.43;;;19.10;55.90;;;;;;5105379;28;20509;-70
2022/10/31 04:20:48;;;;;;;9.88;3.58;;;19.20;55.70;;;;;;5103783;28;20016;-70
2022/10/31 04:23:20;;;;;;;5.50;2.58;;;19.10;55.70;;;;;;5110223;28;20062;-67
2022/10/31 04:25:46;;;;;;;9.18;2.70;;;19.10;55.90;;;;;;5104292;28;20020;-68
2022/10/31 04:28:13;;;;;;;23.75;5.47;;;19.10;55.50;;;;;;5105402;28;21986;-67
2022/10/31 04:30:39;;;;;;;21.17;7.18;;;19.10;55.60;;;;;;5104550;28;20070;-68
2022/10/31 04:33:06;;;;;;;18.90;7.75;;;19.10;55.80;;;;;;5106415;28;20036;-68
2022/10/31 04:35:32;;;;;;;11.07;4.57;;;19.10;55.40;;;;;;5101512;28;20106;-68
2022/10/31 04:37:59;;;;;;;11.43;3.20;;;19.10;55.20;;;;;;5102005;28;20023;-68
2022/10/31 04:40:25;;;;;;;10.05;2.53;;;19.10;54.90;;;;;;5105233;28;20016;-70
2022/10/31 04:42:52;;;;;;;5.72;1.70;;;19.10;54.70;;;;;;5100277;28;20104;-70
2022/10/31 04:45:19;;;;;;;17.33;3.35;;;19.10;54.60;;;;;;5104480;28;20055;-69
2022/10/31 04:47:45;;;;;;;11.10;2.22;;;19.10;54.60;;;;;;5102333;28;20020;-68
2022/10/31 04:50:12;;;;;;;4.30;2.17;;;19.10;54.60;;;;;;5107323;28;20514;-68
2022/10/31 04:52:42;;;;;;;10.35;1.85;;;19.10;54.60;;;;;;5103940;28;20016;-68
2022/10/31 04:55:29;;;;;;;7.07;1.80;;;19.10;54.40;;;;;;5103481;28;20110;-68
2022/10/31 04:57:55;;;;;;;11.70;2.47;;;19.10;54.20;;;;;;5100142;28;20403;-69
2022/10/31 05:00:23;;;;;;;5.95;1.80;;;19.10;54.10;;;;;;5104933;28;20991;-68
2022/10/31 05:02:57;;;;;;;9.00;2.08;;;19.10;54.10;;;;;;5103837;28;20114;-69
2022/10/31 05:05:27;;;;;;;12.05;2.53;;;19.10;54.00;;;;;;5100427;28;20360;-68
2022/10/31 05:07:54;;;;;;;13.75;2.20;;;19.10;53.90;;;;;;5108188;28;20115;-68
2022/10/31 05:10:23;;;;;;;9.30;2.38;;;19.10;53.80;;;;;;5104535;28;20027;-71
2022/10/31 05:12:52;;;;;;;10.73;2.17;;;19.10;54.20;;;;;;5096721;28;20049;-71
2022/10/31 05:15:20;;;;;;;12.43;2.65;;;19.10;54.90;;;;;;5102856;28;20054;-70
2022/10/31 05:17:47;;;;;;;27.42;3.55;;;19.10;55.40;;;;;;5107779;28;20093;-71
2022/10/31 05:20:15;;;;;;;17.98;2.35;;;19.10;55.80;;;;;;5103242;28;20020;-70
2022/10/31 05:22:49;;;;;;;9.68;2.55;;;19.20;56.50;;;;;;5106652;28;20016;-70
2022/10/31 05:25:17;;;;;;;19.40;2.40;;;19.10;56.20;;;;;;5102512;28;20013;-70
2022/10/31 05:27:49;;;;;;;19.48;2.78;;;19.20;55.90;;;;;;5105700;28;20030;-71
2022/10/31 05:30:21;;;;;;;8.82;1.92;;;19.20;55.70;;;;;;5105160;28;20032;-69
2022/10/31 05:32:50;;;;;;;13.45;2.78;;;19.20;55.00;;;;;;5106772;28;20024;-69
2022/10/31 05:35:19;;;;;;;12.32;2.58;;;19.20;54.50;;;;;;5105063;28;20011;-69
2022/10/31 05:37:46;;;;;;;11.05;3.08;;;19.20;54.80;;;;;;5103182;28;20137;-70
2022/10/31 05:40:14;;;;;;;14.63;3.00;;;19.20;54.20;;;;;;5106817;28;20028;-69
2022/10/31 05:42:42;;;;;;;12.68;2.47;;;19.30;53.70;;;;;;5104241;28;20020;-70
2022/10/31 05:45:10;;;;;;;13.40;2.25;;;19.30;53.40;;;;;;5104805;28;20020;-70
2022/10/31 05:47:37;;;;;;;8.23;1.95;;;19.30;53.30;;;;;;5104169;28;20019;-70
2022/10/31 05:50:04;;;;;;;7.45;1.95;;;19.30;53.10;;;;;;5106585;28;20036;-70
2022/10/31 05:52:31;;;;;;;6.75;2.35;;;19.30;53.00;;;;;;5103748;28;20039;-70
2022/10/31 05:54:58;;;;;;;7.63;3.30;;;19.30;52.70;;;;;;5106284;28;20164;-70
2022/10/31 05:57:25;;;;;;;9.50;2.03;;;19.30;52.50;;;;;;5104299;28;20118;-70
2022/10/31 05:59:52;;;;;;;8.10;1.83;;;19.30;52.40;;;;;;5104683;28;20370;-69
2022/10/31 06:02:20;;;;;;;7.70;2.25;;;19.40;52.30;;;;;;5105671;28;20135;-69
2022/10/31 06:04:46;;;;;;;4.45;2.05;;;19.40;52.30;;;;;;5105440;28;20085;-70
2022/10/31 06:07:13;;;;;;;7.80;3.13;;;19.40;52.30;;;;;;5104293;28;20028;-69
2022/10/31 06:09:40;;;;;;;9.77;3.67;;;19.50;52.30;;;;;;5100644;28;20062;-69
2022/10/31 06:12:06;;;;;;;9.90;2.72;;;19.50;52.10;;;;;;5104620;28;20038;-69
2022/10/31 06:14:33;;;;;;;11.52;1.90;;;19.50;52.10;;;;;;5102651;28;20024;-70
2022/10/31 06:16:59;;;;;;;8.02;1.65;;;19.50;52.00;;;;;;5100630;28;20103;-69
2022/10/31 06:19:26;;;;;;;14.65;2.83;;;19.50;51.80;;;;;;5100705;28;20028;-69
2022/10/31 06:21:52;;;;;;;12.05;2.30;;;19.60;51.80;;;;;;5101185;28;20019;-69
2022/10/31 06:24:19;;;;;;;12.25;4.93;;;19.60;51.90;;;;;;5103244;28;20470;-69
2022/10/31 06:26:45;;;;;;;7.13;1.88;;;19.60;52.20;;;;;;5102760;28;20020;-69
2022/10/31 06:29:12;;;;;;;7.75;2.15;;;19.70;52.40;;;;;;5104353;28;20058;-70
2022/10/31 06:31:38;;;;;;;14.18;2.25;;;19.70;52.30;;;;;;5107024;28;20521;-69
2022/10/31 06:34:05;;;;;;;12.95;1.90;;;19.80;52.40;;;;;;5101840;28;20491;-69
2022/10/31 06:36:31;;;;;;;15.75;2.60;;;19.80;52.50;;;;;;5103380;28;20024;-69
2022/10/31 06:38:58;;;;;;;12.65;2.33;;;19.80;52.40;;;;;;5102075;28;20076;-70
2022/10/31 06:41:24;;;;;;;9.55;1.63;;;19.90;52.40;;;;;;5106040;28;20084;-69
2022/10/31 06:43:51;;;;;;;15.23;3.30;;;19.90;52.30;;;;;;5102724;28;20020;-69
2022/10/31 06:46:17;;;;;;;9.35;2.47;;;20.00;52.30;;;;;;5100592;28;20035;-69
2022/10/31 06:48:44;;;;;;;9.60;2.10;;;20.00;52.10;;;;;;5099298;28;20032;-70
2022/10/31 06:51:10;;;;;;;11.02;3.55;;;20.00;51.90;;;;;;5106900;28;20035;-70
2022/10/31 06:53:37;;;;;;;13.00;2.33;;;20.10;51.80;;;;;;5098683;28;20016;-70
2022/10/31 06:56:03;;;;;;;13.63;2.45;;;20.10;51.50;;;;;;5102042;28;20012;-69
2022/10/31 06:58:30;;;;;;;9.48;2.15;;;20.10;51.10;;;;;;5101194;28;20063;-69
2022/10/31 07:01:00;;;;;;;6.47;2.08;;;20.10;50.80;;;;;;5106835;28;20104;-69
2022/10/31 07:03:26;;;;;;;6.07;2.50;;;20.20;50.70;;;;;;5106336;28;20385;-69
2022/10/31 07:05:56;;;;;;;11.05;1.75;;;20.20;50.60;;;;;;5110165;28;20015;-70
2022/10/31 07:08:23;;;;;;;7.07;1.90;;;20.20;50.60;;;;;;5105837;28;20498;-69
2022/10/31 07:10:55;;;;;;;12.30;2.20;;;20.30;50.60;;;;;;5093448;28;20062;-69
2022/10/31 07:13:25;;;;;;;3.88;1.73;;;20.30;50.60;;;;;;5108834;28;20031;-70
2022/10/31 07:15:54;;;;;;;8.00;2.13;;;20.40;50.50;;;;;;5092683;28;20030;-69
2022/10/31 07:18:21;;;;;;;8.77;2.15;;;20.40;50.30;;;;;;5108384;28;20037;-70
2022/10/31 07:20:48;;;;;;;8.38;2.45;;;20.50;50.00;;;;;;5106183;28;20016;-69
2022/10/31 07:23:15;;;;;;;10.65;1.98;;;20.50;50.00;;;;;;5105069;28;20095;-69
2022/10/31 07:25:42;;;;;;;20.40;3.00;;;20.50;50.10;;;;;;5106992;28;20028;-70
2022/10/31 07:28:09;;;;;;;17.73;3.08;;;20.50;50.00;;;;;;5102457;28;20486;-69
2022/10/31 07:30:36;;;;;;;13.43;2.63;;;20.50;49.90;;;;;;5102018;28;20039;-69
2022/10/31 07:33:03;;;;;;;8.90;2.22;;;20.50;50.00;;;;;;5100305;28;20034;-69
2022/10/31 07:35:30;;;;;;;6.80;1.45;;;20.50;49.80;;;;;;5101532;28;20477;-69
2022/10/31 07:37:57;;;;;;;10.98;3.35;;;20.60;49.60;;;;;;5103567;28;20116;-69
2022/10/31 07:40:24;;;;;;;5.93;1.63;;;20.70;49.50;;;;;;5101828;28;20019;-69
2022/10/31 07:42:52;;;;;;;5.45;2.03;;;20.70;49.40;;;;;;5101619;28;20478;-70
2022/10/31 07:45:20;;;;;;;7.20;2.47;;;20.70;49.30;;;;;;5097345;28;20012;-69
2022/10/31 07:47:49;;;;;;;4.30;1.17;;;20.80;49.30;;;;;;5102197;28;20023;-69
2022/10/31 07:50:21;;;;;;;8.63;1.33;;;20.80;49.10;;;;;;5105065;28;20024;-69
2022/10/31 07:52:48;;;;;;;9.77;1.75;;;20.90;48.90;;;;;;5105155;28;20035;-69
2022/10/31 07:55:15;;;;;;;9.65;2.88;;;20.90;48.80;;;;;;5103479;28;20081;-70
2022/10/31 07:57:41;;;;;;;16.52;3.67;;;21.00;48.90;;;;;;5097456;28;20036;-70
2022/10/31 08:00:10;;;;;;;7.13;1.80;;;21.00;48.70;;;;;;5105027;28;20024;-69
2022/10/31 08:02:36;;;;;;;5.88;1.90;;;21.10;48.60;;;;;;5109219;28;20027;-70
2022/10/31 08:05:03;;;;;;;5.75;1.67;;;21.10;48.20;;;;;;5108625;28;20020;-70
2022/10/31 08:07:30;;;;;;;8.50;1.35;;;21.20;47.70;;;;;;5105712;28;20023;-70
2022/10/31 08:09:57;;;;;;;10.30;2.08;;;21.20;47.30;;;;;;5102191;28;20054;-70
2022/10/31 08:12:23;;;;;;;8.85;1.83;;;21.30;47.20;;;;;;5105616;28;20450;-70
2022/10/31 08:14:50;;;;;;;4.50;1.38;;;21.30;46.90;;;;;;5107158;28;20020;-70
2022/10/31 08:17:16;;;;;;;9.52;2.15;;;21.30;46.90;;;;;;5104854;28;20131;-70
2022/10/31 08:19:43;;;;;;;7.68;2.78;;;21.40;47.30;;;;;;5105638;28;20023;-70
2022/10/31 08:22:09;;;;;;;6.22;2.58;;;21.50;47.50;;;;;;5100445;28;20020;-70
2022/10/31 08:24:35;;;;;;;12.60;2.58;;;21.50;47.00;;;;;;5109908;28;20012;-70
2022/10/31 08:27:02;;;;;;;5.40;1.27;;;21.60;46.80;;;;;;5106323;28;20048;-70
2022/10/31 08:29:28;;;;;;;7.07;1.50;;;21.60;46.30;;;;;;5108662;28;20042;-70
2022/10/31 08:31:57;;;;;;;4.95;1.23;;;21.70;46.40;;;;;;5102519;28;20604;-70
2022/10/31 08:34:24;;;;;;;3.45;1.30;;;21.70;46.30;;;;;;5106729;28;20020;-70
2022/10/31 08:36:50;;;;;;;4.63;1.42;;;21.80;46.00;;;;;;5105032;28;20027;-70
2022/10/31 08:39:17;;;;;;;7.80;1.65;;;21.90;46.00;;;;;;5107062;28;20153;-70
2022/10/31 08:41:43;;;;;;;10.57;1.80;;;21.90;45.80;;;;;;5106290;28;20503;-70
2022/10/31 08:44:10;;;;;;;8.02;3.20;;;22.00;45.50;;;;;;5104952;28;20482;-70
2022/10/31 08:46:37;;;;;;;6.78;1.58;;;22.10;45.30;;;;;;5108193;28;20024;-70
2022/10/31 08:49:03;;;;;;;6.85;1.67;;;22.10;45.20;;;;;;5105449;28;20039;-69
2022/10/31 08:51:30;;;;;;;6.28;2.35;;;22.10;44.60;;;;;;5106410;28;20051;-70
2022/10/31 08:53:56;;;;;;;8.32;2.15;;;22.20;44.60;;;;;;5109453;28;20510;-70
2022/10/31 08:56:23;;;;;;;5.85;1.77;;;22.30;44.40;;;;;;5104075;28;20522;-70
2022/10/31 08:58:51;;;;;;;5.28;1.65;;;22.30;44.50;;;;;;5105296;28;20704;-70
2022/10/31 09:01:17;;;;;;;4.20;1.38;;;22.40;44.30;;;;;;5105530;28;20031;-70
2022/10/31 09:03:43;;;;;;;6.45;1.40;;;22.50;44.30;;;;;;5104190;28;20031;-70
2022/10/31 09:06:10;;;;;;;6.05;1.38;;;22.50;44.00;;;;;;5102190;28;20085;-70
2022/10/31 09:08:37;;;;;;;2.85;1.42;;;22.60;44.00;;;;;;5105659;28;20039;-70
2022/10/31 09:11:06;;;;;;;7.95;1.75;;;22.60;43.90;;;;;;5098987;28;20020;-70
2022/10/31 09:13:32;;;;;;;5.93;1.75;;;22.70;43.80;;;;;;5108587;28;20016;-70
2022/10/31 09:15:59;;;;;;;8.52;1.48;;;22.80;43.50;;;;;;5107922;28;20016;-70
2022/10/31 09:18:27;;;;;;;7.10;2.00;;;22.80;43.40;;;;;;5106291;28;20015;-70
2022/10/31 09:20:54;;;;;;;6.90;1.52;;;22.90;43.50;;;;;;5106212;28;20051;-70
2022/10/31 09:23:23;;;;;;;2.55;1.05;;;22.90;43.80;;;;;;5105187;28;20019;-70
2022/10/31 09:25:51;;;;;;;7.47;1.70;;;22.90;42.90;;;;;;5106972;28;20024;-69
2022/10/31 09:28:20;;;;;;;5.88;2.25;;;23.00;43.00;;;;;;5103572;28;20083;-70
2022/10/31 09:30:49;;;;;;;6.32;2.55;;;23.00;42.70;;;;;;5107515;28;20011;-70
2022/10/31 09:33:16;;;;;;;3.42;1.50;;;23.10;42.70;;;;;;5105194;28;20028;-70
2022/10/31 09:35:42;;;;;;;10.30;2.78;;;23.10;42.20;;;;;;5107005;28;20022;-70
2022/10/31 09:38:18;;;;;;;5.10;1.90;;;23.20;42.50;;;;;;5105839;28;20027;-70
2022/10/31 09:41:05;;;;;;;3.42;1.55;;;23.30;42.70;;;;;;5105645;28;20107;-70
2022/10/31 09:43:47;;;;;;;8.25;1.60;;;23.30;42.80;;;;;;5105519;28;20020;-70
2022/10/31 09:46:46;;;;;;;14.30;1.63;;;23.40;43.00;;;;;;5104750;28;20020;-70
2022/10/31 09:49:38;;;;;;;9.75;1.40;;;23.50;43.00;;;;;;5104126;28;20401;-69
2022/10/31 09:52:31;;;;;;;4.82;1.25;;;23.50;42.80;;;;;;5107494;28;20379;-70
2022/10/31 09:55:14;;;;;;;8.07;1.30;;;23.60;42.70;;;;;;5104293;28;20016;-70
2022/10/31 09:57:42;;;;;;;5.40;1.35;;;23.70;42.70;;;;;;5104801;28;20043;-70
2022/10/31 10:00:18;;;;;;;3.42;1.75;;;23.70;42.70;;;;;;5105568;28;20046;-70
2022/10/31 10:03:06;;;;;;;4.63;1.23;;;23.80;42.40;;;;;;5104575;28;20023;-70
2022/10/31 10:05:59;;;;;;;5.35;1.40;;;23.80;42.50;;;;;;5101620;28;20012;-71
2022/10/31 10:08:30;;;;;;;6.13;1.80;;;23.90;42.30;;;;;;5105323;28;20111;-70
2022/10/31 10:11:20;;;;;;;3.92;1.75;;;23.90;41.90;;;;;;5104162;28;20023;-70
2022/10/31 10:13:47;;;;;;;3.95;1.40;;;24.00;41.80;;;;;;5109904;28;20019;-70
2022/10/31 10:16:37;;;;;;;5.97;1.30;;;24.10;41.90;;;;;;5104263;28;20032;-70
2022/10/31 10:19:15;;;;;;;7.28;1.58;;;24.10;41.90;;;;;;5086927;28;20036;-71
2022/10/31 10:22:00;;;;;;;4.90;1.73;;;24.20;42.30;;;;;;5106309;28;20351;-70
2022/10/31 10:24:44;;;;;;;12.35;2.35;;;24.20;41.60;;;;;;5105990;28;20024;-70
2022/10/31 10:27:24;;;;;;;5.78;1.85;;;24.30;41.90;;;;;;5104733;28;20047;-70
2022/10/31 10:30:02;;;;;;;8.85;2.50;;;24.40;41.80;;;;;;5105669;28;20165;-71
2022/10/31 10:32:33;;;;;;;6.13;1.73;;;24.40;41.40;;;;;;5105086;28;20054;-69
2022/10/31 10:35:21;;;;;;;5.90;1.80;;;24.50;41.50;;;;;;5104199;28;20023;-70
2022/10/31 10:37:51;;;;;;;5.75;1.40;;;24.60;41.60;;;;;;5106450;28;20115;-70
2022/10/31 10:40:26;;;;;;;2.42;1.55;;;24.60;41.50;;;;;;5110474;28;20103;-70
2022/10/31 10:43:21;;;;;;;4.22;1.83;;;24.70;41.30;;;;;;5110076;28;20111;-69
2022/10/31 10:48:56;;;;;;;;;;;24.80;41.10;;;;;;5109088;28;20046;-70
2022/10/31 10:51:33;;;;;;;5.78;1.50;;;24.90;41.10;;;;;;5110986;28;20020;-70
2022/10/31 10:54:32;;;;;;;5.53;2.20;;;25.00;41.20;;;;;;5106595;28;20011;-70
2022/10/31 10:57:22;;;;;;;6.10;1.52;;;25.00;40.70;;;;;;5107763;28;20039;-70
2022/10/31 10:59:49;;;;;;;2.55;1.35;;;25.10;40.50;;;;;;5108011;28;20073;-71
2022/10/31 11:02:27;;;;;;;9.55;2.70;;;25.10;40.10;;;;;;5110108;28;20031;-70
2022/10/31 11:04:59;;;;;;;9.35;2.33;;;25.20;40.50;;;;;;5110685;28;20028;-71
2022/10/31 11:07:37;;;;;;;5.25;2.33;;;25.20;41.50;;;;;;5107587;28;20051;-71
2022/10/31 11:10:12;;;;;;;6.63;1.73;;;25.20;42.30;;;;;;5108562;28;20085;-71
2022/10/31 11:12:40;;;;;;;8.77;2.60;;;25.30;43.10;;;;;;5105167;28;20020;-71
2022/10/31 11:15:26;;;;;;;9.23;2.58;;;25.30;43.30;;;;;;5110381;28;20019;-71
2022/10/31 11:17:55;;;;;;;8.90;2.08;;;25.30;43.60;;;;;;5105440;28;20027;-71
2022/10/31 11:20:31;;;;;;;4.97;2.55;;;25.40;43.80;;;;;;5109336;28;20126;-71
2022/10/31 11:23:19;;;;;;;12.57;1.95;;;25.40;43.60;;;;;;5103741;28;20032;-71
2022/10/31 11:25:59;;;;;;;6.97;2.13;;;25.40;43.00;;;;;;5110138;28;20019;-71
2022/10/31 11:28:29;;;;;;;4.85;1.70;;;25.40;42.70;;;;;;5105763;28;20028;-71
2022/10/31 11:31:00;;;;;;;5.15;1.42;;;25.50;42.90;;;;;;5110427;28;20026;-71
2022/10/31 11:33:58;;;;;;;17.13;3.85;;;25.40;43.30;;;;;;5107492;28;20069;-71
2022/10/31 11:36:30;;;;;;;6.70;1.60;;;25.50;43.80;;;;;;5106901;28;20031;-71
2022/10/31 11:38:58;;;;;;;9.43;2.05;;;25.50;44.00;;;;;;5106926;28;20020;-71
2022/10/31 11:41:39;;;;;;;12.63;2.42;;;25.50;44.10;;;;;;5107215;28;20023;-71
2022/10/31 11:44:26;;;;;;;11.20;3.28;;;25.50;44.20;;;;;;5108087;28;20111;-70
2022/10/31 11:46:58;;;;;;;13.68;2.47;;;25.50;44.80;;;;;;5107454;28;20034;-71
2022/10/31 11:49:41;;;;;;;11.23;2.80;;;25.50;45.10;;;;;;5108230;28;20042;-70
2022/10/31 11:52:30;;;;;;;13.63;3.10;;;25.50;45.20;;;;;;5107779;28;20035;-70
2022/10/31 11:55:29;;;;;;;5.45;1.88;;;25.50;45.10;;;;;;5107247;28;20012;-71
2022/10/31 11:57:56;;;;;;;7.15;2.22;;;25.50;45.00;;;;;;5086554;28;20096;-70
2022/10/31 12:00:32;;;;;;;8.77;2.03;;;25.50;45.00;;;;;;5106804;28;20433;-70
2022/10/31 12:03:23;;;;;;;7.05;3.50;;;25.60;45.00;;;;;;5107250;28;20011;-70
2022/10/31 12:06:17;;;;;;;9.07;1.95;;;25.60;44.90;;;;;;5106450;28;20044;-71
2022/10/31 12:08:44;;;;;;;10.57;2.00;;;25.70;44.90;;;;;;5108973;28;20506;-70
2022/10/31 12:11:36;;;;;;;11.07;2.88;;;25.60;45.10;;;;;;5105898;28;20083;-71
2022/10/31 12:14:15;;;;;;;10.18;2.67;;;25.70;45.20;;;;;;5107620;28;20355;-70
2022/10/31 12:16:51;;;;;;;6.20;1.85;;;25.70;45.10;;;;;;5104332;28;20058;-71
2022/10/31 12:19:40;;;;;;;6.07;1.67;;;25.70;45.10;;;;;;5105679;28;20035;-71
2022/10/31 12:22:47;;;;;;;9.38;2.25;;;25.70;45.10;;;;;;5100643;28;20028;-70
2022/10/31 12:25:23;;;;;;;9.25;2.60;;;25.70;45.00;;;;;;5082473;28;20521;-71
2022/10/31 12:28:25;;;;;;;6.10;1.98;;;25.80;44.70;;;;;;5105964;28;20031;-71
2022/10/31 12:31:13;;;;;;;13.95;2.55;;;25.90;45.30;;;;;;5025815;28;20037;-70
2022/10/31 12:33:57;;;;;;;16.17;3.20;;;25.90;44.80;;;;;;5101399;28;20023;-71
2022/10/31 12:37:00;;;;;;;6.35;1.70;;;25.90;44.90;;;;;;5102307;28;20111;-70
2022/10/31 12:40:02;;;;;;;12.00;2.92;;;25.90;44.70;;;;;;5106184;28;20586;-70
2022/10/31 12:42:44;;;;;;;12.73;2.60;;;26.00;44.80;;;;;;5105980;28;20063;-70
2022/10/31 12:45:22;;;;;;;6.97;3.30;;;25.90;44.50;;;;;;5105935;28;20496;-71
2022/10/31 12:47:54;;;;;;;9.75;3.92;;;25.90;44.60;;;;;;5105637;28;20384;-71
2022/10/31 12:50:42;;;;;;;9.45;4.18;;;26.00;44.70;;;;;;5103669;28;20111;-71
2022/10/31 12:53:30;;;;;;;10.10;2.53;;;26.00;44.90;;;;;;5103770;28;20107;-71
2022/10/31 12:56:18;;;;;;;10.02;4.22;;;26.00;44.80;;;;;;5106358;28;20012;-71
2022/10/31 12:58:56;;;;;;;11.20;5.43;;;26.00;44.70;;;;;;5105434;28;20035;-70
2022/10/31 13:01:51;;;;;;;9.85;5.93;;;26.00;44.80;;;;;;5101267;28;20012;-71
2022/10/31 13:04:39;;;;;;;13.68;4.47;;;26.00;45.10;;;;;;5102055;28;20035;-70
2022/10/31 13:07:19;;;;;;;14.68;7.43;;;26.10;45.10;;;;;;5102009;28;20019;-70
2022/10/31 13:09:59;;;;;;;11.55;4.50;;;26.10;45.20;;;;;;5106687;28;21029;-71
2022/10/31 13:12:30;;;;;;;11.98;3.22;;;26.10;45.30;;;;;;5103216;28;20028;-71
2022/10/31 13:15:03;;;;;;;6.22;2.75;;;26.10;45.30;;;;;;5104136;28;20024;-70